Etusivu
METAR-TAF:

METAR-TAF

Lentoasemat :

Park Rapids Municipal Airport (Konshok Field)

Park Rapids, Minnesota, Yhdysvallat

Leveyspiiri: 46-54-02N, Pituuspiiri: 095-04-04W, korkeus merenpinnasta: 439 m

Tämänhetkinen sää

Tämä raportti tehtiin 19 minuuttia sitten, kello 09.27 UTC
Tuuli 8 kn etelästä
Lämpötila -9°C
Kosteus 79%
Ilmanpaine 1009 hPa
Näkyvyys: 4.0 km
Hajonneita pilviä 3000 ft:n korkeudessa
Pilvistä 3900 ft:n korkeudessa
heikkoa lumisadetta

METAR: KPKD 130927Z AUTO 17008KT 2 1/2SM -SN BKN030 OVC039 M09/M12 A2979 RMK AO2 P0000 T10891117

Aika: 03:46 (09:46 UTC)


TAF: puuttuu

Säähavainnot ja -ennusteet yli 4000 lentoasemalta (METAR- ja TAF-raportit).

Käytössä olevat sääasemat on merkitty karttaan keltaisilla ja punaisilla pisteillä.

Aseta hiiri pisteen päälle nähdäksesi sääaseman nimen.

Klikkaa sitten nähdäksesi säähavainnot ja -ennusteet.

Kartan vaihtaminen: klikkaa mustalla rastilla varustettuja vihreitä pisteitä, niin voit zoomata sisään; viivalla varustettua vihreää pistettä, niin voit zoomata ulos tai vihreitä nuolia, niin pääset viereisille kartoille.


METAR-TAF: